sensor_id;sensor_type;location;lat;lon;timestamp;pressure;altitude;pressure_sealevel;temperature;humidity
39177;BME280;24904;52.208;21.192;2023-04-07T00:01:00;100401.59;;;5.03;82.98
39177;BME280;24904;52.208;21.192;2023-04-07T00:06:05;100397.58;;;5.05;83.02
39177;BME280;24904;52.208;21.192;2023-04-07T00:11:10;100395.33;;;5.08;83.32
39177;BME280;24904;52.208;21.192;2023-04-07T00:16:16;100396.39;;;5.12;83.25
39177;BME280;24904;52.208;21.192;2023-04-07T00:21:21;100392.70;;;5.16;83.21
39177;BME280;24904;52.208;21.192;2023-04-07T00:26:26;100387.70;;;5.20;83.46
39177;BME280;24904;52.208;21.192;2023-04-07T00:31:34;100385.38;;;5.20;83.27
39177;BME280;24904;52.208;21.192;2023-04-07T00:36:39;100381.45;;;5.21;83.38
39177;BME280;24904;52.208;21.192;2023-04-07T00:41:44;100376.81;;;5.24;83.43
39177;BME280;24904;52.208;21.192;2023-04-07T00:46:49;100377.29;;;5.27;83.53
39177;BME280;24904;52.208;21.192;2023-04-07T00:51:55;100374.16;;;5.32;83.75
39177;BME280;24904;52.208;21.192;2023-04-07T00:57:01;100375.70;;;5.35;83.80
39177;BME280;24904;52.208;21.192;2023-04-07T01:02:09;100373.54;;;5.41;83.81
39177;BME280;24904;52.208;21.192;2023-04-07T01:07:17;100374.61;;;5.46;83.94
39177;BME280;24904;52.208;21.192;2023-04-07T01:12:38;100369.85;;;5.48;83.78
39177;BME280;24904;52.208;21.192;2023-04-07T01:17:52;100373.30;;;5.51;83.81
39177;BME280;24904;52.208;21.192;2023-04-07T01:23:03;100371.41;;;5.52;83.84
39177;BME280;24904;52.208;21.192;2023-04-07T01:33:48;100366.45;;;5.50;83.92
39177;BME280;24904;52.208;21.192;2023-04-07T01:38:53;100359.81;;;5.52;84.18
39177;BME280;24904;52.208;21.192;2023-04-07T01:43:59;100355.67;;;5.55;84.06
39177;BME280;24904;52.208;21.192;2023-04-07T01:49:06;100358.30;;;5.59;84.21
39177;BME280;24904;52.208;21.192;2023-04-07T01:54:11;100354.72;;;5.62;84.25
39177;BME280;24904;52.208;21.192;2023-04-07T01:59:17;100357.76;;;5.64;84.34
39177;BME280;24904;52.208;21.192;2023-04-07T02:04:27;100355.92;;;5.68;84.49
39177;BME280;24904;52.208;21.192;2023-04-07T02:09:39;100352.21;;;5.72;84.62
39177;BME280;24904;52.208;21.192;2023-04-07T02:14:46;100350.20;;;5.75;84.63
39177;BME280;24904;52.208;21.192;2023-04-07T02:19:53;100351.05;;;5.77;84.71
39177;BME280;24904;52.208;21.192;2023-04-07T02:25:00;100352.23;;;5.80;84.59
39177;BME280;24904;52.208;21.192;2023-04-07T02:30:06;100354.61;;;5.84;84.67
39177;BME280;24904;52.208;21.192;2023-04-07T02:35:12;100355.64;;;5.87;84.77
39177;BME280;24904;52.208;21.192;2023-04-07T02:40:17;100353.87;;;5.91;84.87
39177;BME280;24904;52.208;21.192;2023-04-07T02:45:22;100356.39;;;5.95;84.77
39177;BME280;24904;52.208;21.192;2023-04-07T02:50:27;100356.18;;;5.96;84.61
39177;BME280;24904;52.208;21.192;2023-04-07T02:55:32;100356.09;;;5.96;84.73
39177;BME280;24904;52.208;21.192;2023-04-07T03:00:38;100354.84;;;5.95;84.61
39177;BME280;24904;52.208;21.192;2023-04-07T03:05:55;100360.04;;;5.98;84.67
39177;BME280;24904;52.208;21.192;2023-04-07T03:11:01;100360.08;;;6.02;84.83
39177;BME280;24904;52.208;21.192;2023-04-07T03:16:07;100355.06;;;6.06;84.73
39177;BME280;24904;52.208;21.192;2023-04-07T03:21:19;100355.98;;;6.08;84.89
39177;BME280;24904;52.208;21.192;2023-04-07T03:26:24;100359.59;;;6.09;84.86
39177;BME280;24904;52.208;21.192;2023-04-07T03:31:31;100361.52;;;6.11;84.89
39177;BME280;24904;52.208;21.192;2023-04-07T03:36:36;100361.75;;;6.14;84.89
39177;BME280;24904;52.208;21.192;2023-04-07T03:41:42;100359.91;;;6.15;84.81
39177;BME280;24904;52.208;21.192;2023-04-07T03:46:47;100356.95;;;6.15;85.07
39177;BME280;24904;52.208;21.192;2023-04-07T03:55:00;100356.02;;;6.23;84.77
39177;BME280;24904;52.208;21.192;2023-04-07T04:00:08;100359.68;;;6.23;84.76
39177;BME280;24904;52.208;21.192;2023-04-07T04:05:28;100358.01;;;6.25;84.84
39177;BME280;24904;52.208;21.192;2023-04-07T04:10:32;100357.88;;;6.29;84.96
39177;BME280;24904;52.208;21.192;2023-04-07T04:15:35;100361.02;;;6.29;84.97
39177;BME280;24904;52.208;21.192;2023-04-07T04:20:41;100367.77;;;6.29;85.25
39177;BME280;24904;52.208;21.192;2023-04-07T04:29:14;100372.67;;;6.34;85.51
39177;BME280;24904;52.208;21.192;2023-04-07T04:34:18;100374.70;;;6.36;85.46
39177;BME280;24904;52.208;21.192;2023-04-07T04:39:22;100375.11;;;6.37;85.60
39177;BME280;24904;52.208;21.192;2023-04-07T04:44:25;100373.68;;;6.39;85.75
39177;BME280;24904;52.208;21.192;2023-04-07T04:49:29;100380.52;;;6.41;85.76
39177;BME280;24904;52.208;21.192;2023-04-07T04:54:34;100378.27;;;6.42;85.95
39177;BME280;24904;52.208;21.192;2023-04-07T04:59:38;100380.97;;;6.44;86.19
39177;BME280;24904;52.208;21.192;2023-04-07T05:04:41;100383.44;;;6.48;86.36
39177;BME280;24904;52.208;21.192;2023-04-07T05:09:57;100378.59;;;6.50;86.30
39177;BME280;24904;52.208;21.192;2023-04-07T05:15:01;100381.02;;;6.54;86.34
39177;BME280;24904;52.208;21.192;2023-04-07T05:20:07;100378.98;;;6.57;86.37
39177;BME280;24904;52.208;21.192;2023-04-07T05:25:13;100383.46;;;6.61;86.25
39177;BME280;24904;52.208;21.192;2023-04-07T05:30:17;100382.42;;;6.62;86.61
39177;BME280;24904;52.208;21.192;2023-04-07T05:35:20;100378.66;;;6.67;86.67
39177;BME280;24904;52.208;21.192;2023-04-07T05:40:28;100380.70;;;6.71;86.76
39177;BME280;24904;52.208;21.192;2023-04-07T05:45:32;100387.82;;;6.75;86.87
39177;BME280;24904;52.208;21.192;2023-04-07T05:50:36;100384.73;;;6.78;86.91
39177;BME280;24904;52.208;21.192;2023-04-07T05:55:42;100387.66;;;6.83;87.13
39177;BME280;24904;52.208;21.192;2023-04-07T06:00:49;100387.88;;;6.86;87.01
39177;BME280;24904;52.208;21.192;2023-04-07T06:05:53;100382.81;;;6.89;87.02
39177;BME280;24904;52.208;21.192;2023-04-07T06:10:57;100381.05;;;6.93;87.21
39177;BME280;24904;52.208;21.192;2023-04-07T06:16:00;100376.08;;;7.00;87.20
39177;BME280;24904;52.208;21.192;2023-04-07T06:21:03;100375.97;;;7.04;87.29
39177;BME280;24904;52.208;21.192;2023-04-07T06:26:10;100379.55;;;7.07;87.42
39177;BME280;24904;52.208;21.192;2023-04-07T06:31:13;100378.91;;;7.13;87.33
39177;BME280;24904;52.208;21.192;2023-04-07T06:36:17;100379.52;;;7.19;87.54
39177;BME280;24904;52.208;21.192;2023-04-07T06:41:20;100381.08;;;7.25;87.62
39177;BME280;24904;52.208;21.192;2023-04-07T06:46:23;100381.70;;;7.35;88.02
39177;BME280;24904;52.208;21.192;2023-04-07T06:51:27;100378.86;;;7.43;88.06
39177;BME280;24904;52.208;21.192;2023-04-07T06:56:30;100372.52;;;7.53;88.19
39177;BME280;24904;52.208;21.192;2023-04-07T07:01:34;100370.87;;;7.59;88.12
39177;BME280;24904;52.208;21.192;2023-04-07T07:06:37;100373.23;;;7.67;87.95
39177;BME280;24904;52.208;21.192;2023-04-07T07:11:40;100372.03;;;7.76;87.96
39177;BME280;24904;52.208;21.192;2023-04-07T07:16:43;100374.75;;;7.89;88.35
39177;BME280;24904;52.208;21.192;2023-04-07T07:21:46;100376.34;;;8.01;88.03
39177;BME280;24904;52.208;21.192;2023-04-07T07:26:49;100380.64;;;8.08;87.66
39177;BME280;24904;52.208;21.192;2023-04-07T07:31:52;100388.78;;;8.17;87.75
39177;BME280;24904;52.208;21.192;2023-04-07T07:36:55;100389.25;;;8.24;87.58
39177;BME280;24904;52.208;21.192;2023-04-07T07:41:58;100390.77;;;8.33;87.81
39177;BME280;24904;52.208;21.192;2023-04-07T07:47:02;100392.80;;;8.44;87.89
39177;BME280;24904;52.208;21.192;2023-04-07T07:52:05;100391.64;;;8.52;87.69
39177;BME280;24904;52.208;21.192;2023-04-07T07:57:08;100393.26;;;8.63;87.78
39177;BME280;24904;52.208;21.192;2023-04-07T08:02:11;100399.52;;;8.76;87.86
39177;BME280;24904;52.208;21.192;2023-04-07T08:07:14;100397.60;;;8.82;87.48
39177;BME280;24904;52.208;21.192;2023-04-07T08:12:17;100392.58;;;8.89;87.21
39177;BME280;24904;52.208;21.192;2023-04-07T08:17:20;100396.04;;;8.95;87.22
39177;BME280;24904;52.208;21.192;2023-04-07T08:22:23;100394.32;;;9.03;87.32
39177;BME280;24904;52.208;21.192;2023-04-07T08:27:26;100400.88;;;9.11;87.29
39177;BME280;24904;52.208;21.192;2023-04-07T08:32:35;100398.84;;;9.16;87.01
39177;BME280;24904;52.208;21.192;2023-04-07T08:37:39;100398.14;;;9.21;86.87
39177;BME280;24904;52.208;21.192;2023-04-07T08:42:46;100399.05;;;9.29;87.03
39177;BME280;24904;52.208;21.192;2023-04-07T08:47:54;100398.33;;;9.37;87.15
39177;BME280;24904;52.208;21.192;2023-04-07T08:53:00;100398.16;;;9.46;87.13
39177;BME280;24904;52.208;21.192;2023-04-07T08:58:06;100395.20;;;9.53;86.90
39177;BME280;24904;52.208;21.192;2023-04-07T09:03:13;100399.05;;;9.63;86.85
39177;BME280;24904;52.208;21.192;2023-04-07T09:08:17;100403.77;;;9.64;86.23
39177;BME280;24904;52.208;21.192;2023-04-07T09:13:20;100402.69;;;9.60;86.24
39177;BME280;24904;52.208;21.192;2023-04-07T09:18:23;100399.50;;;9.61;86.24
39177;BME280;24904;52.208;21.192;2023-04-07T09:23:31;100396.33;;;9.64;86.53
39177;BME280;24904;52.208;21.192;2023-04-07T09:28:42;100393.48;;;9.69;86.53
39177;BME280;24904;52.208;21.192;2023-04-07T09:33:45;100393.02;;;9.73;86.49
39177;BME280;24904;52.208;21.192;2023-04-07T09:38:48;100387.36;;;9.77;86.65
39177;BME280;24904;52.208;21.192;2023-04-07T09:43:56;100390.60;;;9.85;86.91
39177;BME280;24904;52.208;21.192;2023-04-07T09:49:02;100392.65;;;9.91;86.87
39177;BME280;24904;52.208;21.192;2023-04-07T09:54:06;100396.39;;;10.01;86.90
39177;BME280;24904;52.208;21.192;2023-04-07T09:59:10;100392.89;;;10.09;86.96
39177;BME280;24904;52.208;21.192;2023-04-07T10:04:13;100396.13;;;10.16;86.82
39177;BME280;24904;52.208;21.192;2023-04-07T10:09:18;100398.02;;;10.21;86.99
39177;BME280;24904;52.208;21.192;2023-04-07T10:14:25;100401.67;;;10.26;87.00
39177;BME280;24904;52.208;21.192;2023-04-07T10:19:31;100405.37;;;10.32;87.17
39177;BME280;24904;52.208;21.192;2023-04-07T10:24:45;100406.70;;;10.39;87.25
39177;BME280;24904;52.208;21.192;2023-04-07T10:29:52;100412.60;;;10.45;87.40
39177;BME280;24904;52.208;21.192;2023-04-07T10:34:56;100406.08;;;10.51;87.64
39177;BME280;24904;52.208;21.192;2023-04-07T10:40:27;100410.32;;;10.58;87.45
39177;BME280;24904;52.208;21.192;2023-04-07T10:45:52;100413.81;;;10.63;86.80
39177;BME280;24904;52.208;21.192;2023-04-07T10:51:21;100412.52;;;10.67;87.05
39177;BME280;24904;52.208;21.192;2023-04-07T10:56:25;100411.54;;;10.76;87.31
39177;BME280;24904;52.208;21.192;2023-04-07T11:01:29;100417.23;;;10.87;87.10
39177;BME280;24904;52.208;21.192;2023-04-07T11:06:32;100420.91;;;10.95;87.01
39177;BME280;24904;52.208;21.192;2023-04-07T11:11:39;100416.98;;;11.01;86.86
39177;BME280;24904;52.208;21.192;2023-04-07T11:16:43;100421.74;;;11.07;86.91
39177;BME280;24904;52.208;21.192;2023-04-07T11:21:47;100425.09;;;11.11;86.58
39177;BME280;24904;52.208;21.192;2023-04-07T11:26:50;100427.30;;;11.12;85.98
39177;BME280;24904;52.208;21.192;2023-04-07T11:31:53;100434.09;;;11.11;85.81
39177;BME280;24904;52.208;21.192;2023-04-07T11:36:56;100441.06;;;11.08;85.67
39177;BME280;24904;52.208;21.192;2023-04-07T11:42:01;100444.65;;;11.05;86.12
39177;BME280;24904;52.208;21.192;2023-04-07T11:47:04;100443.98;;;11.00;86.44
39177;BME280;24904;52.208;21.192;2023-04-07T11:52:07;100445.85;;;10.98;86.79
39177;BME280;24904;52.208;21.192;2023-04-07T11:57:10;100453.23;;;10.99;87.24
39177;BME280;24904;52.208;21.192;2023-04-07T12:02:30;100444.61;;;11.01;87.35
39177;BME280;24904;52.208;21.192;2023-04-07T12:07:34;100437.54;;;11.09;87.77
39177;BME280;24904;52.208;21.192;2023-04-07T12:12:37;100444.67;;;11.15;87.62
39177;BME280;24904;52.208;21.192;2023-04-07T12:17:44;100449.35;;;11.20;87.48
39177;BME280;24904;52.208;21.192;2023-04-07T12:22:48;100451.84;;;11.33;87.64
39177;BME280;24904;52.208;21.192;2023-04-07T12:27:51;100455.52;;;11.40;86.97
39177;BME280;24904;52.208;21.192;2023-04-07T12:32:54;100465.45;;;11.43;86.15
39177;BME280;24904;52.208;21.192;2023-04-07T12:37:57;100468.61;;;11.47;85.49
39177;BME280;24904;52.208;21.192;2023-04-07T12:43:00;100470.11;;;11.46;84.36
39177;BME280;24904;52.208;21.192;2023-04-07T12:48:04;100474.09;;;11.44;84.08
39177;BME280;24904;52.208;21.192;2023-04-07T12:53:07;100477.87;;;11.45;83.59
39177;BME280;24904;52.208;21.192;2023-04-07T12:58:10;100479.79;;;11.49;83.27
39177;BME280;24904;52.208;21.192;2023-04-07T13:03:15;100492.91;;;11.56;82.36
39177;BME280;24904;52.208;21.192;2023-04-07T13:08:18;100495.70;;;11.54;81.24
39177;BME280;24904;52.208;21.192;2023-04-07T13:13:22;100498.65;;;11.50;80.57
39177;BME280;24904;52.208;21.192;2023-04-07T13:18:25;100508.85;;;11.49;80.00
39177;BME280;24904;52.208;21.192;2023-04-07T13:23:28;100519.84;;;11.47;79.74
39177;BME280;24904;52.208;21.192;2023-04-07T13:28:31;100526.75;;;11.40;78.32
39177;BME280;24904;52.208;21.192;2023-04-07T13:33:37;100526.73;;;11.29;77.75
39177;BME280;24904;52.208;21.192;2023-04-07T13:38:42;100523.38;;;11.24;77.62
39177;BME280;24904;52.208;21.192;2023-04-07T13:43:45;100527.60;;;11.23;77.10
39177;BME280;24904;52.208;21.192;2023-04-07T13:48:48;100530.98;;;11.24;76.92
39177;BME280;24904;52.208;21.192;2023-04-07T13:53:52;100531.38;;;11.24;76.42
39177;BME280;24904;52.208;21.192;2023-04-07T13:58:57;100530.04;;;11.24;76.59
39177;BME280;24904;52.208;21.192;2023-04-07T14:04:01;100531.98;;;11.29;76.61
39177;BME280;24904;52.208;21.192;2023-04-07T14:09:06;100538.41;;;11.36;76.71
39177;BME280;24904;52.208;21.192;2023-04-07T14:14:11;100544.89;;;11.39;76.29
39177;BME280;24904;52.208;21.192;2023-04-07T14:19:14;100549.17;;;11.36;76.03
39177;BME280;24904;52.208;21.192;2023-04-07T14:24:19;100554.65;;;11.27;75.29
39177;BME280;24904;52.208;21.192;2023-04-07T14:29:24;100560.14;;;11.12;74.49
39177;BME280;24904;52.208;21.192;2023-04-07T14:34:29;100566.60;;;11.00;74.44
39177;BME280;24904;52.208;21.192;2023-04-07T14:39:33;100573.09;;;10.93;74.16
39177;BME280;24904;52.208;21.192;2023-04-07T14:44:38;100574.01;;;10.85;73.82
39177;BME280;24904;52.208;21.192;2023-04-07T14:49:42;100579.66;;;10.80;73.78
39177;BME280;24904;52.208;21.192;2023-04-07T15:02:48;100586.30;;;10.65;73.51
39177;BME280;24904;52.208;21.192;2023-04-07T15:07:53;100587.11;;;10.62;73.24
39177;BME280;24904;52.208;21.192;2023-04-07T15:12:58;100594.02;;;10.56;73.10
39177;BME280;24904;52.208;21.192;2023-04-07T15:18:03;100592.14;;;10.52;73.31
39177;BME280;24904;52.208;21.192;2023-04-07T15:23:08;100597.09;;;10.53;73.13
39177;BME280;24904;52.208;21.192;2023-04-07T15:28:13;100598.75;;;10.54;72.50
39177;BME280;24904;52.208;21.192;2023-04-07T15:33:19;100608.00;;;10.57;72.32
39177;BME280;24904;52.208;21.192;2023-04-07T15:38:24;100614.77;;;10.59;71.91
39177;BME280;24904;52.208;21.192;2023-04-07T15:43:29;100614.86;;;10.56;71.61
39177;BME280;24904;52.208;21.192;2023-04-07T15:48:34;100618.10;;;10.52;71.69
39177;BME280;24904;52.208;21.192;2023-04-07T15:53:39;100620.55;;;10.47;71.99
39177;BME280;24904;52.208;21.192;2023-04-07T15:58:44;100627.52;;;10.46;72.22
39177;BME280;24904;52.208;21.192;2023-04-07T16:03:49;100637.01;;;10.41;72.07
39177;BME280;24904;52.208;21.192;2023-04-07T16:08:54;100645.87;;;10.36;71.72
39177;BME280;24904;52.208;21.192;2023-04-07T16:13:59;100646.14;;;10.29;70.86
39177;BME280;24904;52.208;21.192;2023-04-07T16:19:04;100651.25;;;10.22;70.61
39177;BME280;24904;52.208;21.192;2023-04-07T16:24:09;100660.08;;;10.16;70.35
39177;BME280;24904;52.208;21.192;2023-04-07T16:29:15;100669.28;;;10.09;70.28
39177;BME280;24904;52.208;21.192;2023-04-07T16:34:20;100674.75;;;10.03;69.96
39177;BME280;24904;52.208;21.192;2023-04-07T16:39:25;100685.17;;;9.95;69.52
39177;BME280;24904;52.208;21.192;2023-04-07T16:44:30;100695.73;;;9.90;69.24
39177;BME280;24904;52.208;21.192;2023-04-07T16:49:35;100705.73;;;9.80;69.21
39177;BME280;24904;52.208;21.192;2023-04-07T16:54:40;100712.57;;;9.69;69.05
39177;BME280;24904;52.208;21.192;2023-04-07T16:59:45;100721.26;;;9.57;68.94
39177;BME280;24904;52.208;21.192;2023-04-07T17:04:50;100723.90;;;9.45;69.03
39177;BME280;24904;52.208;21.192;2023-04-07T17:09:55;100734.83;;;9.40;69.25
39177;BME280;24904;52.208;21.192;2023-04-07T17:15:01;100738.77;;;9.34;69.33
39177;BME280;24904;52.208;21.192;2023-04-07T17:20:07;100749.10;;;9.30;69.54
39177;BME280;24904;52.208;21.192;2023-04-07T17:25:13;100755.66;;;9.26;69.74
39177;BME280;24904;52.208;21.192;2023-04-07T17:30:19;100761.17;;;9.24;69.97
39177;BME280;24904;52.208;21.192;2023-04-07T17:35:24;100768.69;;;9.24;70.18
39177;BME280;24904;52.208;21.192;2023-04-07T17:40:29;100776.09;;;9.22;70.25
39177;BME280;24904;52.208;21.192;2023-04-07T17:45:34;100786.26;;;9.21;70.00
39177;BME280;24904;52.208;21.192;2023-04-07T17:50:39;100795.23;;;9.20;70.09
39177;BME280;24904;52.208;21.192;2023-04-07T17:55:44;100805.64;;;9.17;70.16
39177;BME280;24904;52.208;21.192;2023-04-07T18:00:49;100814.10;;;9.11;70.04
39177;BME280;24904;52.208;21.192;2023-04-07T18:05:54;100821.11;;;9.09;70.29
39177;BME280;24904;52.208;21.192;2023-04-07T18:10:59;100832.48;;;9.07;70.03
39177;BME280;24904;52.208;21.192;2023-04-07T18:16:05;100844.13;;;9.03;70.21
39177;BME280;24904;52.208;21.192;2023-04-07T18:21:12;100852.19;;;9.00;70.26
39177;BME280;24904;52.208;21.192;2023-04-07T18:26:17;100861.95;;;8.97;69.97
39177;BME280;24904;52.208;21.192;2023-04-07T18:31:22;100866.18;;;8.94;70.16
39177;BME280;24904;52.208;21.192;2023-04-07T18:36:27;100867.69;;;8.91;70.22
39177;BME280;24904;52.208;21.192;2023-04-07T18:41:32;100878.05;;;8.89;70.04
39177;BME280;24904;52.208;21.192;2023-04-07T18:47:14;100882.98;;;8.89;70.17
39177;BME280;24904;52.208;21.192;2023-04-07T18:52:17;100887.61;;;8.81;70.30
39177;BME280;24904;52.208;21.192;2023-04-07T18:57:20;100893.80;;;8.78;70.54
39177;BME280;24904;52.208;21.192;2023-04-07T19:02:23;100900.20;;;8.75;70.75
39177;BME280;24904;52.208;21.192;2023-04-07T19:07:26;100907.84;;;8.71;70.69
39177;BME280;24904;52.208;21.192;2023-04-07T19:12:29;100918.27;;;8.70;71.24
39177;BME280;24904;52.208;21.192;2023-04-07T19:17:32;100918.88;;;8.69;71.27
39177;BME280;24904;52.208;21.192;2023-04-07T19:22:35;100924.63;;;8.67;71.51
39177;BME280;24904;52.208;21.192;2023-04-07T19:27:38;100927.52;;;8.67;71.42
39177;BME280;24904;52.208;21.192;2023-04-07T19:32:42;100927.94;;;8.62;71.44
39177;BME280;24904;52.208;21.192;2023-04-07T19:37:45;100935.83;;;8.54;71.53
39177;BME280;24904;52.208;21.192;2023-04-07T19:42:48;100939.61;;;8.52;71.54
39177;BME280;24904;52.208;21.192;2023-04-07T19:47:52;100948.77;;;8.50;71.34
39177;BME280;24904;52.208;21.192;2023-04-07T19:52:55;100956.75;;;8.42;70.74
39177;BME280;24904;52.208;21.192;2023-04-07T19:57:58;100962.99;;;8.31;70.40
39177;BME280;24904;52.208;21.192;2023-04-07T20:03:01;100971.22;;;8.22;70.30
39177;BME280;24904;52.208;21.192;2023-04-07T20:08:05;100982.52;;;8.16;70.07
39177;BME280;24904;52.208;21.192;2023-04-07T20:13:08;100988.42;;;8.07;69.93
39177;BME280;24904;52.208;21.192;2023-04-07T20:18:11;101001.73;;;7.98;69.71
39177;BME280;24904;52.208;21.192;2023-04-07T20:23:14;101013.00;;;7.86;69.30
39177;BME280;24904;52.208;21.192;2023-04-07T20:28:20;101019.21;;;7.75;68.85
39177;BME280;24904;52.208;21.192;2023-04-07T20:33:23;101023.88;;;7.61;68.66
39177;BME280;24904;52.208;21.192;2023-04-07T20:38:26;101028.98;;;7.50;68.54
39177;BME280;24904;52.208;21.192;2023-04-07T20:43:30;101028.06;;;7.36;68.70
39177;BME280;24904;52.208;21.192;2023-04-07T20:48:33;101029.41;;;7.26;68.87
39177;BME280;24904;52.208;21.192;2023-04-07T20:53:36;101032.02;;;7.20;68.90
39177;BME280;24904;52.208;21.192;2023-04-07T20:58:39;101032.39;;;7.18;69.16
39177;BME280;24904;52.208;21.192;2023-04-07T21:03:42;101036.99;;;7.15;69.04
39177;BME280;24904;52.208;21.192;2023-04-07T21:08:45;101039.63;;;7.13;69.20
39177;BME280;24904;52.208;21.192;2023-04-07T21:13:48;101042.00;;;7.11;69.22
39177;BME280;24904;52.208;21.192;2023-04-07T21:18:51;101042.95;;;7.07;69.06
39177;BME280;24904;52.208;21.192;2023-04-07T21:23:54;101047.54;;;7.04;68.84
39177;BME280;24904;52.208;21.192;2023-04-07T21:28:57;101055.36;;;7.01;68.80
39177;BME280;24904;52.208;21.192;2023-04-07T21:34:00;101058.52;;;7.02;68.83
39177;BME280;24904;52.208;21.192;2023-04-07T21:39:03;101064.08;;;7.04;68.82
39177;BME280;24904;52.208;21.192;2023-04-07T21:44:09;101067.73;;;7.06;68.61
39177;BME280;24904;52.208;21.192;2023-04-07T21:49:12;101073.96;;;7.04;68.53
39177;BME280;24904;52.208;21.192;2023-04-07T21:54:16;101075.56;;;7.03;68.52
39177;BME280;24904;52.208;21.192;2023-04-07T21:59:19;101077.89;;;7.01;68.51
39177;BME280;24904;52.208;21.192;2023-04-07T22:04:22;101083.88;;;6.94;68.39
39177;BME280;24904;52.208;21.192;2023-04-07T22:09:26;101088.27;;;6.90;68.56
39177;BME280;24904;52.208;21.192;2023-04-07T22:14:29;101093.83;;;6.89;68.54
39177;BME280;24904;52.208;21.192;2023-04-07T22:19:31;101087.04;;;6.84;68.35
39177;BME280;24904;52.208;21.192;2023-04-07T22:24:35;101092.93;;;6.86;68.38
39177;BME280;24904;52.208;21.192;2023-04-07T22:29:37;101091.29;;;6.83;68.39
39177;BME280;24904;52.208;21.192;2023-04-07T22:34:41;101088.83;;;6.84;68.52
39177;BME280;24904;52.208;21.192;2023-04-07T22:39:44;101094.66;;;6.82;68.30
39177;BME280;24904;52.208;21.192;2023-04-07T22:44:47;101098.24;;;6.77;68.43
39177;BME280;24904;52.208;21.192;2023-04-07T22:49:50;101100.33;;;6.75;68.59
39177;BME280;24904;52.208;21.192;2023-04-07T22:54:53;101100.68;;;6.77;68.85
39177;BME280;24904;52.208;21.192;2023-04-07T22:59:56;101098.32;;;6.73;68.33
39177;BME280;24904;52.208;21.192;2023-04-07T23:04:59;101102.21;;;6.71;68.55
39177;BME280;24904;52.208;21.192;2023-04-07T23:10:03;101105.20;;;6.74;68.43
39177;BME280;24904;52.208;21.192;2023-04-07T23:15:07;101103.02;;;6.72;68.43
39177;BME280;24904;52.208;21.192;2023-04-07T23:20:11;101106.17;;;6.73;68.65
39177;BME280;24904;52.208;21.192;2023-04-07T23:25:15;101108.30;;;6.75;68.60
39177;BME280;24904;52.208;21.192;2023-04-07T23:30:18;101107.26;;;6.75;68.57
39177;BME280;24904;52.208;21.192;2023-04-07T23:35:21;101101.31;;;6.72;68.38
39177;BME280;24904;52.208;21.192;2023-04-07T23:40:24;101098.27;;;6.72;68.57
39177;BME280;24904;52.208;21.192;2023-04-07T23:45:27;101105.70;;;6.73;68.60
39177;BME280;24904;52.208;21.192;2023-04-07T23:50:30;101104.40;;;6.71;68.40
39177;BME280;24904;52.208;21.192;2023-04-07T23:55:33;101107.51;;;6.69;68.42
